Flag for Spain

Past Weather in 40°18'02.6"N, 3°26'17.1"W, Spain — Yesterday and Last 2 Weeks

Currently: 63 °F. Passing clouds. (Weather station: Madrid / Cuatro Vientos, Spain). See more current weather

Past Weather in 40°18'02.6"N, 3°26'17.1"W — Graph

°F

40°18'02.6"N, 3°26'17.1"W Temperature Yesterday

Maximum temperature yesterday: 66 °F (at 5:30 pm)
Minimum temperature yesterday: 46 °F (at 4:30 am)
Average temperature yesterday: 55 °F

High & Low Weather Summary for the Past Weeks

 TemperatureHumidityPressure
High75 °F (Apr 6, 5:00 pm)100% (Apr 3, 3:30 am)30.27 "Hg (Apr 3, 3:30 am)
Low41 °F (Apr 12, 7:30 am)19% (Apr 16, 7:00 pm)29.83 "Hg (Apr 10, 7:30 pm)
Average56 °F60%30.03 "Hg
* Reported Apr 2 7:00 pm — Apr 17 7:30 pm, 40°18'02.6"N, 3°26'17.1"W. Weather by CustomWeather, © 2021

Note: Actual official high and low records may vary slightly from our data, if they occured in-between our weather recording intervals... More about our weather records

40°18'02.6"N, 3°26'17.1"W Weather History for the Previous 24 Hours

Scroll right to see more
 ConditionsComfort  
Time TempWeatherWind HumidityBarometerVisibility
7:30 pm
Sat, Apr 17
64 °FPassing clouds.6 mph28%30.01 "HgN/A
7:00 pm64 °FPassing clouds.3 mph26%30.01 "HgN/A
6:30 pm64 °FSunny.2 mph28%30.01 "Hg10 mi
6:00 pm64 °FSunny.2 mph26%30.01 "Hg10 mi
5:30 pm63 °FSunny.5 mph32%30.01 "Hg10 mi
5:00 pm63 °FSunny.5 mph32%30.01 "Hg10 mi
4:30 pm61 °FSunny.7 mph34%30.04 "Hg10 mi
4:00 pm61 °FSunny.5 mph36%30.04 "Hg10 mi
3:30 pm61 °FSunny.2 mph39%30.04 "Hg10 mi
3:00 pm59 °FPassing clouds.6 mph39%30.07 "HgN/A
2:30 pm57 °FSunny.3 mph33%30.07 "Hg10 mi
2:00 pm55 °FSunny.2 mph33%30.07 "Hg10 mi
1:30 pm55 °FSunny.3 mph38%30.09 "Hg10 mi
1:00 pm55 °FSunny.3 mph38%30.09 "Hg10 mi
12:30 pm54 °FSunny.5 mph41%30.09 "Hg10 mi
12:00 pm52 °FSunny.2 mph41%30.12 "Hg10 mi
11:30 am52 °FSunny.2 mph41%30.12 "Hg10 mi
11:00 am48 °FSunny.3 mph43%30.12 "Hg10 mi
10:30 am46 °FPassing clouds.6 mph46%30.12 "HgN/A
10:00 am46 °FSunny.7 mph50%30.12 "Hg10 mi
9:30 am45 °FPassing clouds.7 mph49%30.12 "HgN/A
9:00 am43 °FPassing clouds.6 mph57%30.12 "HgN/A
8:30 am43 °FPassing clouds.5 mph53%30.12 "HgN/A
8:00 am41 °FPassing clouds.6 mph57%30.12 "HgN/A
7:30 am41 °FPassing clouds.5 mph57%30.09 "HgN/A
7:00 am41 °FPassing clouds.5 mph53%30.09 "HgN/A
6:30 am41 °FPassing clouds.8 mph53%30.09 "HgN/A
6:00 am41 °FPassing clouds.8 mph53%30.09 "HgN/A
5:30 am41 °FPassing clouds.8 mph53%30.12 "HgN/A
5:00 am43 °FPassing clouds.6 mph46%30.12 "HgN/A
4:30 am43 °FPassing clouds.7 mph46%30.12 "HgN/A
4:00 am43 °FPassing clouds.7 mph42%30.12 "HgN/A
3:30 am43 °FPassing clouds.8 mph42%30.12 "HgN/A
3:00 am45 °FClear.7 mph39%30.12 "Hg10 mi
2:30 am45 °FPassing clouds.8 mph37%30.12 "HgN/A
2:00 am46 °FPassing clouds.9 mph34%30.12 "HgN/A
1:30 am46 °FPassing clouds.8 mph34%30.09 "HgN/A
1:00 am48 °FPassing clouds.10 mph29%30.09 "HgN/A
12:30 am50 °FPassing clouds.8 mph25%30.09 "HgN/A
12:00 am52 °FPassing clouds.8 mph24%30.09 "HgN/A
11:30 pm
Fri, Apr 16
52 °FClear.8 mph30%30.07 "Hg10 mi
11:00 pm54 °FPassing clouds.8 mph35%30.07 "HgN/A
10:30 pm54 °FPassing clouds.7 mph35%30.07 "HgN/A
10:00 pm54 °FPassing clouds.7 mph35%30.04 "HgN/A
9:30 pm55 °FPassing clouds.7 mph31%30.01 "HgN/A
9:00 pm57 °FPassing clouds.8 mph29%30.01 "HgN/A
8:30 pm59 °FPassing clouds.10 mph27%29.98 "HgN/A
8:00 pm61 °FPassing clouds.9 mph23%29.98 "HgN/A
Weather by CustomWeather, © 2021

See weather overview